Flight Track Log - Related Links

Times and Time Zones

All times are in EST time to prevent confusion due to time zone crossing. See the N119BJ flight status page for this flight to view local times or setup timezone preferences in your user account.

Time Position Orientation Groundspeed Altitude Reporting Facility
EST Latitude Longitude Course Direction KTS MPH feet Rate Location/Type
Tue 01:34:05 PM 44.4519 -73.2256 193° South 127 146 4,000  Level Boston Center
Tue 01:35:06 PM 44.4167 -73.2397 196° South 126 145 5,200 1,082 Climbing Boston Center
Tue 01:36:07 PM 44.3825 -73.2503 192° South 127 146 6,200 885 Climbing Boston Center
Tue 01:37:00 PM 44.2387 -73.2293 195° South  Level FlightAware Approximate
Tue 01:37:08 PM 44.3481 -73.2622 194° South 129 148 7,000  Level Boston Center
Tue 01:38:00 PM 44.2008 -73.2434 195° South  Level FlightAware Approximate
Tue 01:38:09 PM 44.3081 -73.2769 195° South 137 158 7,900  Level Boston Center
Tue 01:39:10 PM 44.2686 -73.2903 194° South 146 168 8,100 49 Climbing Boston Center
Tue 01:40:11 PM 44.2231 -73.3061 194° South 156 180 8,000 -49 Descending Boston Center
Tue 01:41:12 PM 44.1819 -73.3197 193° South 154 177 8,000  Level Boston Center
Tue 01:42:13 PM 44.1406 -73.3339 194° South 154 177 8,000  Level Boston Center
Tue 01:43:14 PM 44.0969 -73.3494 194° South 152 175 8,000  Level Boston Center
Tue 01:44:15 PM 44.0575 -73.3633 194° South 149 171 8,000  Level Boston Center
Tue 01:45:16 PM 44.0178 -73.3778 195° South 149 171 8,000  Level Boston Center
Tue 01:46:17 PM 43.9833 -73.3894 194° South 152 175 8,000  Level Boston Center
Tue 01:47:18 PM 43.9311 -73.4067 193° South 156 180 8,000  Level Boston Center
Tue 01:48:19 PM 43.8892 -73.4203 193° South 157 181 8,000 49 Level Boston Center
Tue 01:49:20 PM 43.8475 -73.4356 195° South 157 181 8,100  Climbing Boston Center
Tue 01:50:21 PM 43.8019 -73.4494 192° South 156 180 8,000 -49 Descending Boston Center
Tue 01:51:22 PM 43.7600 -73.4667 197° South 159 183 8,000  Level Boston Center
Tue 01:52:23 PM 43.7169 -73.4767 190° South 160 184 8,000  Level Boston Center
Tue 01:53:24 PM 43.6714 -73.4936 195° South 159 183 8,000 49 Level Boston Center
Tue 01:54:26 PM 43.6281 -73.5078 193° South 158 182 8,100 49 Climbing Boston Center
Tue 01:55:27 PM 43.5861 -73.5231 195° South 157 181 8,100  Level Boston Center
Tue 01:56:11 PM 43.5558 -73.5325 193° South 157 181 8,100  Level Boston Center
Tue 01:56:28 PM 43.5439 -73.5389 201° Southwest 158 182 8,100  Level Boston Center
Tue 01:56:41 PM 43.5306 -73.5417 189° South 159 183 8,100 -98 Level Boston Center
Tue 01:57:29 PM 43.5011 -73.5519 194° South 157 181 8,000 -98 Descending Boston Center
Tue 01:57:42 PM 43.4897 -73.5544 189° South 159 183 8,000  Level Boston Center
Tue 01:58:30 PM 43.4586 -73.5658 195° South 157 181 8,000  Level Boston Center
Tue 01:58:43 PM 43.4464 -73.5692 191° South 155 178 8,000  Level Boston Center
Tue 01:59:31 PM 43.4164 -73.5800 195° South 156 180 8,000  Level Boston Center
Tue 01:59:43 PM 43.4053 -73.5819 187° South 155 178 8,000  Level Boston Center
Tue 02:00:32 PM 43.3708 -73.5928 193° South 156 180 8,000  Level Boston Center
Tue 02:00:44 PM 43.3619 -73.5967 198° South 159 183 8,000  Level Boston Center
Tue 02:01:33 PM 43.3275 -73.6064 192° South 159 183 8,000  Level Boston Center
Tue 02:01:51 PM 43.3139 -73.6128 199° South 159 183 8,000  Level Boston Center
Tue 02:02:34 PM 43.2814 -73.6236 194° South 158 182 8,000  Level Boston Center
Tue 02:02:51 PM 43.2706 -73.6275 195° South 160 184 8,000  Level Boston Center
Tue 02:03:35 PM 43.2372 -73.6389 194° South 162 186 8,000  Level Boston Center
Tue 02:03:52 PM 43.2272 -73.6422 194° South 162 186 8,000  Level Boston Center
Tue 02:04:36 PM 43.1944 -73.6539 195° South 158 182 8,000  Level Boston Center
Tue 02:04:53 PM 43.1836 -73.6569 192° South 161 185 8,000  Level Boston Center
Tue 02:05:37 PM 43.1497 -73.6686 194° South 164 189 8,000  Level Boston Center
Tue 02:05:53 PM 43.1403 -73.6717 193° South 165 190 8,000  Level Boston Center
Tue 02:06:38 PM 43.1050 -73.6839 194° South 164 189 8,000  Level Boston Center
Tue 02:06:48 PM 43.0989 -73.6869 200° South 165 190 8,000  Level Boston Center
Tue 02:07:39 PM 43.0619 -73.6986 193° South 159 183 8,000  Level Boston Center
Tue 02:07:48 PM 43.0553 -73.7014 197° South 158 182 8,000  Level Boston Center
Tue 02:08:40 PM 43.0186 -73.7128 193° South 160 184 8,000  Level Boston Center
Tue 02:08:49 PM 43.0119 -73.7161 200° South 160 184 8,000  Level Boston Center
Tue 02:09:50 PM 42.9711 -73.7286 193° South 154 177 8,000  Level Boston Center
Tue 02:09:53 PM 42.9733 -73.7281 10° North 155 178 8,000  Level Boston Center
Tue 02:10:54 PM 42.9258 -73.7433 193° South 151 174 8,000  Level Boston Center
Tue 02:11:55 PM 42.8817 -73.7583 194° South 152 175 8,000  Level Boston Center
Tue 02:12:52 PM 42.8433 -73.7700 193° South 151 174 8,000  Level Boston Center
Tue 02:12:56 PM 42.8406 -73.7714 200° South 152 175 8,000  Level Boston Center
Tue 02:13:52 PM 42.8017 -73.7853 195° South 151 174 8,000  Level Boston Center
Tue 02:13:57 PM 42.7994 -73.7853 180° South 151 174 8,000  Level Boston Center
Tue 02:14:53 PM 42.7608 -73.7975 193° South 154 177 8,000  Level Boston Center
Tue 02:14:58 PM 42.7581 -73.7989 200° South 153 176 8,000  Level Boston Center
Tue 02:15:59 PM 42.7131 -73.8053 186° South 159 183 8,000  Level Boston Center
Tue 02:17:01 PM 42.6689 -73.8047 179° South 158 182 8,000  Level Boston Center
Tue 02:17:55 PM 42.6264 -73.8047 180° South 156 180 8,000  Level Boston Center
Tue 02:18:02 PM 42.6247 -73.8047 180° South 158 182 8,000  Level Boston Center
Tue 02:18:55 PM 42.5808 -73.8067 182° South 159 183 8,000  Level Boston Center
Tue 02:19:03 PM 42.5800 -73.8061 154° Southeast 159 183 8,000  Level Boston Center
Tue 02:19:56 PM 42.5381 -73.8067 181° South 160 184 8,000  Level Boston Center
Tue 02:20:04 PM 42.5356 -73.8075 194° South 159 183 8,000  Level Boston Center
Tue 02:20:57 PM 42.4925 -73.8089 181° South 162 186 8,000  Level Boston Center
Tue 02:21:05 PM 42.4869 -73.8083 176° South 161 185 8,000  Level Boston Center
Tue 02:21:57 PM 42.4469 -73.8111 183° South 161 185 8,000  Level Boston Center
Tue 02:22:06 PM 42.4419 -73.8097 168° South 161 185 8,000  Level Boston Center
Tue 02:22:58 PM 42.4019 -73.8103 181° South 163 188 8,000  Level Boston Center
Tue 02:23:07 PM 42.3967 -73.8103 180° South 162 186 8,000  Level Boston Center
Tue 02:24:08 PM 42.3514 -73.8103 180° South 163 188 8,000  Level Boston Center
Tue 02:25:09 PM 42.3053 -73.8106 180° South 165 190 8,000  Level Boston Center
Tue 02:26:10 PM 42.2578 -73.8128 182° South 160 184 8,000  Level Boston Center
Tue 02:27:12 PM 42.2133 -73.8125 180° South 159 183 8,000  Level Boston Center
Tue 02:28:13 PM 42.1681 -73.8133 181° South 160 184 8,000  Level Boston Center
Tue 02:29:14 PM 42.1228 -73.8158 182° South 163 188 8,000  Level Boston Center
Tue 02:30:15 PM 42.0775 -73.8158 180° South 163 188 8,000  Level Boston Center
Tue 02:31:16 PM 42.0311 -73.8161 180° South 162 186 8,000  Level Boston Center
Tue 02:32:17 PM 41.9869 -73.8181 182° South 160 184 8,000 49 Level Boston Center
Tue 02:33:19 PM 41.9392 -73.8181 180° South 159 183 8,100 -146 Climbing Boston Center
Tue 02:34:20 PM 41.8933 -73.8203 182° South 164 189 7,700 -393 Descending Boston Center
Tue 02:35:21 PM 41.8458 -73.8089 170° South 174 200 7,300 -443 Descending Boston Center
Tue 02:36:22 PM 41.7975 -73.7881 162° South 181 208 6,800 -492 Descending Boston Center
Tue 02:37:23 PM 41.7503 -73.7664 161° South 179 206 6,300 -344 Descending Boston Center
Tue 02:38:24 PM 41.6997 -73.7464 164° South 175 201 6,100 -98 Descending Boston Center
Tue 02:39:25 PM 41.6656 -73.7322 163° South 169 194 6,100  Level Boston Center
Tue 02:40:27 PM 41.6117 -73.7092 162° South 165 190 6,100  Level Boston Center
Tue 02:41:28 PM 41.5669 -73.6925 164° South 166 191 6,100  Level Boston Center
Tue 02:42:29 PM 41.5183 -73.6736 164° South 168 193 6,100 -261 Level Boston Center
Tue 02:43:46 PM 41.4500 -73.6500 165° South 178 205 5,500 -438 Descending New York TRACON
Tue 02:44:46 PM 41.4167 -73.6333 159° South 167 192 5,100 -200 Descending New York TRACON
Tue 02:45:46 PM 41.3667 -73.6167 166° South 154 177 5,100  Level New York TRACON
Tue 02:46:40 PM 41.3333 -73.6000 159° South 156 180 5,100 -104 Level New York TRACON
Tue 02:47:41 PM 41.3000 -73.5833 159° South 163 188 4,900 -298 Descending New York TRACON
Tue 02:48:41 PM 41.2500 -73.5833 180° South 154 177 4,500 -500 Descending New York TRACON
Tue 02:49:41 PM 41.2000 -73.5667 166° South 154 177 3,900 -650 Descending New York TRACON
Tue 02:50:41 PM 41.1667 -73.5667 180° South 157 181 3,200 -700 Descending New York TRACON
Tue 02:51:41 PM 41.1167 -73.5500 166° South 154 177 2,500 -550 Descending New York TRACON
Tue 02:52:41 PM 41.0833 -73.5500 180° South 141 162 2,100 -200 Descending New York TRACON
Tue 02:53:41 PM 41.0500 -73.5333 159° South 136 157 2,100  Level New York TRACON
Tue 02:54:47 PM 41.0167 -73.5667 217° Southwest 128 147 2,100  Level New York TRACON
Tue 02:55:41 PM 41.0000 -73.6000 236° Southwest 126 145 2,100 -104 Level New York TRACON
Tue 02:56:42 PM 40.9833 -73.6500 246° West 116 133 1,900 -248 Descending New York TRACON
Tue 02:57:42 PM 41.0167 -73.6667 339° North 98 113 1,600 -350 Descending New York TRACON
Tue 02:58:42 PM 41.0333 -73.6833 323° Northwest 95 109 1,200 -450 Descending New York TRACON
Tue 02:59:42 PM 41.0500 -73.7000 323° Northwest 76 87 700 -500 Descending New York TRACON

Login

Don't have an account? Register now (free) for customized features, flight alerts, and more!